createdAt,value
2018-11-27T00:00:41.832Z,0.90
2018-11-27T00:03:10.443Z,0.80
2018-11-27T00:05:38.982Z,0.80
2018-11-27T00:08:07.857Z,0.70
2018-11-27T00:10:39.019Z,0.70
2018-11-27T00:13:07.377Z,0.70
2018-11-27T00:15:36.632Z,0.60
2018-11-27T00:18:05.052Z,0.60
2018-11-27T00:20:33.324Z,0.60
2018-11-27T00:23:01.629Z,0.60
2018-11-27T00:25:30.011Z,0.60
2018-11-27T00:27:58.312Z,0.50
2018-11-27T00:30:26.669Z,0.50
2018-11-27T00:32:55.323Z,0.50
2018-11-27T00:35:23.707Z,0.50
2018-11-27T00:37:52.007Z,0.50
2018-11-27T00:40:21.510Z,0.50
2018-11-27T00:42:49.843Z,0.40
2018-11-27T00:45:19.240Z,0.40
2018-11-27T00:47:48.400Z,0.40
2018-11-27T00:50:17.788Z,0.40
2018-11-27T00:52:46.192Z,0.40
2018-11-27T00:55:15.509Z,0.40
2018-11-27T00:57:44.596Z,0.40
2018-11-27T01:00:18.827Z,0.30
2018-11-27T01:02:47.467Z,0.30
2018-11-27T01:05:17.990Z,0.30
2018-11-27T01:07:46.461Z,0.30
2018-11-27T01:10:17.059Z,0.20
2018-11-27T01:12:45.426Z,0.20
2018-11-27T01:15:14.675Z,0.20
2018-11-27T01:17:48.520Z,0.20
2018-11-27T01:20:17.724Z,0.20
2018-11-27T01:22:46.023Z,0.10
2018-11-27T01:25:14.454Z,0.10
2018-11-27T01:27:42.751Z,0.10
2018-11-27T01:30:20.531Z,0.10
2018-11-27T01:32:49.334Z,0.10
2018-11-27T01:35:18.823Z,0.10
2018-11-27T01:37:47.878Z,0.10
2018-11-27T01:40:19.508Z,0.00
2018-11-27T01:42:49.092Z,0.00
2018-11-27T01:45:18.583Z,0.00
2018-11-27T01:47:47.298Z,0.00
2018-11-27T01:50:16.409Z,0.00
2018-11-27T01:52:44.783Z,0.00
2018-11-27T01:55:14.568Z,0.00
2018-11-27T01:57:42.966Z,0.00
2018-11-27T02:00:29.735Z,0.00
2018-11-27T02:02:58.884Z,0.00
2018-11-27T02:05:27.954Z,0.00
2018-11-27T02:07:56.479Z,-0.10
2018-11-27T02:10:24.878Z,0.00
2018-11-27T02:12:54.203Z,-0.10
2018-11-27T02:15:24.427Z,-0.10
2018-11-27T02:17:52.791Z,-0.10
2018-11-27T02:20:21.164Z,-0.10
2018-11-27T02:22:49.624Z,-0.10
2018-11-27T02:25:21.094Z,-0.10
2018-11-27T02:27:49.459Z,-0.10
2018-11-27T02:30:18.786Z,-0.10
2018-11-27T02:32:47.109Z,-0.20
2018-11-27T02:35:19.040Z,-0.10
2018-11-27T02:37:48.267Z,-0.20
2018-11-27T02:40:17.310Z,-0.20
2018-11-27T02:42:45.642Z,-0.20
2018-11-27T02:45:16.459Z,-0.20
2018-11-27T02:47:45.317Z,-0.20
2018-11-27T02:50:14.847Z,-0.20
2018-11-27T02:52:43.148Z,-0.20
2018-11-27T02:55:27.277Z,-0.20
2018-11-27T02:57:55.604Z,-0.20
2018-11-27T03:00:25.077Z,-0.20
2018-11-27T03:02:53.358Z,-0.20
2018-11-27T03:05:23.860Z,-0.20
2018-11-27T03:07:52.185Z,-0.20
2018-11-27T03:10:23.145Z,-0.20
2018-11-27T03:12:53.453Z,-0.20
2018-11-27T03:15:21.783Z,-0.20
2018-11-27T03:17:50.135Z,-0.20
2018-11-27T03:20:18.865Z,-0.20
2018-11-27T03:22:47.555Z,-0.20
2018-11-27T03:25:18.081Z,-0.20
2018-11-27T03:27:47.454Z,-0.20
2018-11-27T03:30:18.829Z,-0.30
2018-11-27T03:32:47.165Z,-0.20
2018-11-27T03:35:17.288Z,-0.20
2018-11-27T03:37:47.270Z,-0.30
2018-11-27T03:40:19.406Z,-0.20
2018-11-27T03:42:47.696Z,-0.20
2018-11-27T03:45:16.487Z,-0.20
2018-11-27T03:47:44.854Z,-0.20
2018-11-27T03:50:17.849Z,-0.20
2018-11-27T03:52:46.177Z,-0.20
2018-11-27T03:55:15.600Z,-0.20
2018-11-27T03:57:43.891Z,-0.20
2018-11-27T04:00:21.926Z,-0.30
2018-11-27T04:02:53.684Z,-0.30
2018-11-27T04:05:22.860Z,-0.30
2018-11-27T04:07:51.283Z,-0.30
2018-11-27T04:10:20.057Z,-0.30
2018-11-27T04:12:48.461Z,-0.30
2018-11-27T04:15:16.804Z,-0.40
2018-11-27T04:17:45.181Z,-0.30
2018-11-27T04:20:13.937Z,-0.40
2018-11-27T04:22:43.042Z,-0.40
2018-11-27T04:25:13.589Z,-0.40
2018-11-27T04:27:41.973Z,-0.40
2018-11-27T04:30:13.222Z,-0.40
2018-11-27T04:32:41.675Z,-0.40
2018-11-27T04:35:12.111Z,-0.40
2018-11-27T04:37:40.471Z,-0.40
2018-11-27T04:40:11.103Z,-0.40
2018-11-27T04:42:39.416Z,-0.40
2018-11-27T04:45:10.584Z,-0.40
2018-11-27T04:47:38.900Z,-0.40
2018-11-27T04:50:09.086Z,-0.40
2018-11-27T04:52:37.754Z,-0.40
2018-11-27T04:55:07.455Z,-0.50
2018-11-27T04:57:35.800Z,-0.50
2018-11-27T05:00:05.280Z,-0.50
2018-11-27T05:02:33.584Z,-0.50
2018-11-27T05:05:01.915Z,-0.50
2018-11-27T05:07:31.988Z,-0.50
2018-11-27T05:10:00.382Z,-0.50
2018-11-27T05:12:28.674Z,-0.50
2018-11-27T05:14:57.553Z,-0.50
2018-11-27T05:17:25.872Z,-0.50
2018-11-27T05:19:54.224Z,-0.50
2018-11-27T05:22:22.569Z,-0.60
2018-11-27T05:24:50.923Z,-0.60
2018-11-27T05:27:19.249Z,-0.50
2018-11-27T05:29:47.905Z,-0.60
2018-11-27T05:32:16.249Z,-0.60
2018-11-27T05:34:44.569Z,-0.60
2018-11-27T05:37:12.860Z,-0.60
2018-11-27T05:39:41.232Z,-0.60
2018-11-27T05:42:09.711Z,-0.60
2018-11-27T05:44:38.028Z,-0.60
2018-11-27T05:47:06.764Z,-0.60
2018-11-27T05:49:35.116Z,-0.60
2018-11-27T05:52:03.442Z,-0.60
2018-11-27T05:54:31.764Z,-0.60
2018-11-27T05:57:00.094Z,-0.60
2018-11-27T05:59:28.426Z,-0.60
2018-11-27T06:01:56.736Z,-0.60
2018-11-27T06:04:25.050Z,-0.70
2018-11-27T06:06:53.385Z,-0.60
2018-11-27T06:09:22.300Z,-0.70
2018-11-27T06:11:50.584Z,-0.60
2018-11-27T06:14:19.550Z,-0.60
2018-11-27T06:16:47.885Z,-0.60
2018-11-27T06:19:16.223Z,-0.60
2018-11-27T06:21:44.577Z,-0.60
2018-11-27T06:24:12.929Z,-0.50
2018-11-27T06:26:41.316Z,-0.40
2018-11-27T06:29:09.695Z,-0.40
2018-11-27T06:31:38.075Z,-0.30
2018-11-27T06:34:06.928Z,-0.30
2018-11-27T06:36:35.292Z,-0.30
2018-11-27T06:39:04.380Z,-0.20
2018-11-27T06:41:32.644Z,-0.20
2018-11-27T06:44:01.017Z,-0.10
2018-11-27T06:46:29.859Z,0.00
2018-11-27T06:48:58.254Z,0.00
2018-11-27T06:51:26.748Z,0.00
2018-11-27T06:53:55.592Z,0.10
2018-11-27T06:56:23.909Z,0.10
2018-11-27T06:58:52.210Z,0.30
2018-11-27T07:01:21.769Z,0.40
2018-11-27T07:03:50.157Z,0.50
2018-11-27T07:06:18.640Z,0.50
2018-11-27T07:08:46.980Z,0.60
2018-11-27T07:11:15.364Z,0.60
2018-11-27T07:13:43.827Z,0.60
2018-11-27T07:16:12.196Z,0.70
2018-11-27T07:18:40.571Z,0.70
2018-11-27T07:21:08.992Z,0.80
2018-11-27T07:23:37.945Z,0.80
2018-11-27T07:26:06.707Z,0.80
2018-11-27T07:28:35.057Z,0.70
2018-11-27T07:31:03.536Z,0.70
2018-11-27T07:33:32.052Z,0.70
2018-11-27T07:36:00.432Z,0.60
2018-11-27T07:38:28.812Z,0.60
2018-11-27T07:40:57.135Z,0.50
2018-11-27T07:43:25.550Z,0.50
2018-11-27T07:45:55.278Z,0.60
2018-11-27T07:48:22.484Z,0.60
2018-11-27T07:50:50.824Z,0.60
2018-11-27T07:53:19.348Z,0.60
2018-11-27T07:55:48.049Z,0.60
2018-11-27T07:58:16.434Z,0.60
2018-11-27T08:00:44.908Z,0.60
2018-11-27T08:03:13.207Z,0.70
2018-11-27T08:05:41.856Z,0.70
2018-11-27T08:08:11.780Z,0.70
2018-11-27T08:10:40.841Z,0.70
2018-11-27T08:13:09.963Z,0.70
2018-11-27T08:15:38.268Z,0.70
2018-11-27T08:18:08.141Z,0.70
2018-11-27T08:20:36.575Z,0.70
2018-11-27T08:23:05.365Z,0.80
2018-11-27T08:25:33.772Z,0.80
2018-11-27T08:28:02.287Z,0.90
2018-11-27T08:30:30.629Z,0.90
2018-11-27T08:32:59.015Z,0.90
2018-11-27T08:35:28.743Z,1.00
2018-11-27T08:37:58.409Z,1.10
2018-11-27T08:40:27.907Z,1.30
2018-11-27T08:42:57.133Z,1.40
2018-11-27T08:45:25.781Z,1.50
2018-11-27T08:47:55.769Z,1.60
2018-11-27T08:50:27.141Z,1.70
2018-11-27T08:52:58.361Z,1.80
2018-11-27T08:55:31.026Z,1.80
2018-11-27T08:58:00.204Z,1.90
2018-11-27T09:00:28.513Z,2.00
2018-11-27T09:02:56.879Z,2.00
2018-11-27T09:05:25.192Z,2.10
2018-11-27T09:07:53.660Z,2.10
2018-11-27T09:10:24.177Z,2.20
2018-11-27T09:12:52.479Z,2.20
2018-11-27T09:15:21.991Z,2.20
2018-11-27T09:17:53.712Z,2.20
2018-11-27T09:20:22.049Z,2.20
2018-11-27T09:22:50.352Z,2.30
2018-11-27T09:25:18.782Z,2.30
2018-11-27T09:27:47.134Z,2.30
2018-11-27T09:30:25.464Z,2.40
2018-11-27T09:32:55.297Z,2.40
2018-11-27T09:35:23.631Z,2.30
2018-11-27T09:37:51.987Z,2.30
2018-11-27T09:40:20.992Z,2.30
2018-11-27T09:42:49.333Z,2.30
2018-11-27T09:45:21.636Z,2.40
2018-11-27T09:47:51.519Z,2.50
2018-11-27T09:50:19.867Z,2.50
2018-11-27T09:52:48.346Z,2.60
2018-11-27T09:55:25.822Z,2.70
2018-11-27T09:57:59.186Z,2.70
2018-11-27T10:00:27.936Z,2.70
2018-11-27T10:02:57.485Z,2.80
2018-11-27T10:05:25.893Z,2.90
2018-11-27T10:07:54.265Z,2.90
2018-11-27T10:10:24.497Z,2.90
2018-11-27T10:12:52.903Z,2.80
2018-11-27T10:15:24.211Z,2.80
2018-11-27T10:17:56.587Z,2.90
2018-11-27T10:20:26.229Z,2.90
2018-11-27T10:22:54.594Z,3.00
2018-11-27T10:25:22.934Z,3.10
2018-11-27T10:27:51.248Z,3.10
2018-11-27T10:30:23.103Z,3.10
2018-11-27T10:32:52.643Z,3.20
2018-11-27T10:35:23.793Z,3.20
2018-11-27T10:37:52.234Z,3.30
2018-11-27T10:40:20.581Z,3.30
2018-11-27T10:42:49.121Z,3.20
2018-11-27T10:45:19.830Z,3.20
2018-11-27T10:47:49.333Z,3.30
2018-11-27T10:50:18.467Z,3.30
2018-11-27T10:52:48.117Z,3.20
2018-11-27T10:55:17.415Z,3.20
2018-11-27T10:57:45.745Z,3.30
2018-11-27T11:00:22.486Z,3.30
2018-11-27T11:02:56.096Z,3.30
2018-11-27T11:05:27.780Z,3.30
2018-11-27T11:07:55.859Z,3.40
2018-11-27T11:10:24.153Z,3.40
2018-11-27T11:12:53.051Z,3.40
2018-11-27T11:15:21.412Z,3.50
2018-11-27T11:17:49.780Z,3.40
2018-11-27T11:20:18.426Z,3.50
2018-11-27T11:22:46.759Z,3.40
2018-11-27T11:25:16.214Z,3.50
2018-11-27T11:27:45.288Z,3.40
2018-11-27T11:30:17.915Z,3.30
2018-11-27T11:32:46.264Z,3.30
2018-11-27T11:35:14.660Z,3.40
2018-11-27T11:37:43.079Z,3.40
2018-11-27T11:40:14.415Z,3.50
2018-11-27T11:42:42.828Z,3.50
2018-11-27T11:45:11.740Z,3.50
2018-11-27T11:47:40.298Z,3.40
2018-11-27T11:50:14.051Z,3.40
2018-11-27T11:52:45.503Z,3.30
2018-11-27T11:55:13.243Z,3.20
2018-11-27T11:57:42.131Z,3.10
2018-11-27T12:00:12.765Z,3.10
2018-11-27T12:02:41.103Z,3.10
2018-11-27T12:05:10.493Z,2.90
2018-11-27T12:07:38.877Z,2.80
2018-11-27T12:10:09.537Z,2.90
2018-11-27T12:12:37.901Z,2.90
2018-11-27T12:15:09.034Z,2.90
2018-11-27T12:17:37.507Z,2.80
2018-11-27T12:20:07.785Z,2.80
2018-11-27T12:22:36.118Z,2.80
2018-11-27T12:25:05.719Z,2.90
2018-11-27T12:27:34.128Z,2.80
2018-11-27T12:30:02.451Z,2.80
2018-11-27T12:32:30.784Z,2.80
2018-11-27T12:34:59.385Z,2.80
2018-11-27T12:37:27.726Z,2.90
2018-11-27T12:39:56.109Z,2.90
2018-11-27T12:42:24.442Z,3.00
2018-11-27T12:44:52.788Z,3.10
2018-11-27T12:47:21.081Z,3.10
2018-11-27T12:49:49.403Z,3.10
2018-11-27T12:52:17.696Z,3.10
2018-11-27T12:54:46.012Z,3.20
2018-11-27T12:57:14.352Z,3.20
2018-11-27T12:59:42.773Z,3.30
2018-11-27T13:02:11.109Z,3.30
2018-11-27T13:04:39.430Z,3.30
2018-11-27T13:07:07.732Z,3.40
2018-11-27T13:09:36.065Z,3.30
2018-11-27T13:12:04.570Z,3.30
2018-11-27T13:14:32.961Z,3.30
2018-11-27T13:17:01.276Z,3.30
2018-11-27T13:19:29.681Z,3.30
2018-11-27T13:21:57.985Z,3.30
2018-11-27T13:24:26.338Z,3.20
2018-11-27T13:26:54.708Z,3.30
2018-11-27T13:29:23.024Z,3.30
2018-11-27T13:31:51.912Z,3.40
2018-11-27T13:34:20.235Z,3.40
2018-11-27T13:36:48.609Z,3.40
2018-11-27T13:39:31.968Z,3.40
2018-11-27T13:42:00.296Z,3.50
2018-11-27T13:44:28.677Z,3.30
2018-11-27T13:46:57.108Z,3.30
2018-11-27T13:49:25.810Z,3.20
2018-11-27T13:51:54.148Z,3.30
2018-11-27T13:54:22.527Z,3.30
2018-11-27T13:59:24.045Z,3.30
2018-11-27T14:01:52.327Z,3.30
2018-11-27T14:04:20.957Z,3.20
2018-11-27T14:06:49.339Z,3.10
2018-11-27T14:09:17.660Z,3.10
2018-11-27T14:11:45.988Z,3.10
2018-11-27T14:14:14.433Z,3.10
2018-11-27T14:16:42.740Z,3.00
2018-11-27T14:19:11.098Z,3.00
2018-11-27T14:21:39.420Z,3.00
2018-11-27T14:24:07.746Z,3.00
2018-11-27T14:26:36.109Z,2.90
2018-11-27T14:29:05.077Z,2.90
2018-11-27T14:31:33.490Z,2.90
2018-11-27T14:34:01.840Z,2.90
2018-11-27T14:36:30.217Z,2.90
2018-11-27T14:38:58.817Z,2.80
2018-11-27T14:41:27.131Z,2.70
2018-11-27T14:43:55.427Z,2.80
2018-11-27T14:46:23.782Z,2.70
2018-11-27T14:48:52.857Z,2.80
2018-11-27T14:51:21.230Z,2.80
2018-11-27T14:53:49.619Z,2.70
2018-11-27T14:56:17.934Z,2.80
2018-11-27T14:58:50.867Z,2.80
2018-11-27T15:01:14.696Z,2.90
2018-11-27T15:03:43.035Z,2.90
2018-11-27T15:06:11.385Z,2.90
2018-11-27T15:08:39.724Z,2.90
2018-11-27T15:11:12.690Z,2.90
2018-11-27T15:13:36.541Z,2.80
2018-11-27T15:16:04.926Z,2.90
2018-11-27T15:18:33.280Z,2.90
2018-11-27T15:21:01.662Z,2.90
2018-11-27T15:23:30.071Z,2.80
2018-11-27T15:25:58.705Z,2.90
2018-11-27T15:28:26.995Z,2.90
2018-11-27T15:30:55.357Z,2.80
2018-11-27T15:33:23.678Z,2.90
2018-11-27T15:35:51.996Z,2.80
2018-11-27T15:38:20.360Z,2.80
2018-11-27T15:40:48.645Z,2.90
2018-11-27T15:43:16.928Z,2.90
2018-11-27T15:45:46.155Z,2.90
2018-11-27T15:48:14.513Z,2.90
2018-11-27T15:50:42.855Z,2.90
2018-11-27T15:53:11.197Z,3.00
2018-11-27T15:55:40.084Z,2.90
2018-11-27T15:58:12.667Z,2.90
2018-11-27T16:00:41.973Z,2.80
2018-11-27T16:03:10.381Z,2.90
2018-11-27T16:05:39.578Z,2.80
2018-11-27T16:08:08.533Z,2.80
2018-11-27T16:10:36.844Z,2.80
2018-11-27T16:13:05.484Z,2.80
2018-11-27T16:15:33.780Z,2.80
2018-11-27T16:18:02.107Z,2.80
2018-11-27T16:20:30.426Z,2.80
2018-11-27T16:22:58.764Z,2.80
2018-11-27T16:25:27.093Z,2.90
2018-11-27T16:27:55.811Z,2.90
2018-11-27T16:30:26.268Z,2.90
2018-11-27T16:32:54.656Z,2.90
2018-11-27T16:35:23.018Z,2.90
2018-11-27T16:37:53.573Z,2.90
2018-11-27T16:40:26.277Z,2.90
2018-11-27T16:42:54.577Z,2.90
2018-11-27T16:45:23.666Z,2.80
2018-11-27T16:47:52.196Z,2.90
2018-11-27T16:50:20.726Z,2.90
2018-11-27T16:52:49.530Z,2.90
2018-11-27T16:55:19.037Z,2.90
2018-11-27T16:57:47.379Z,2.90
2018-11-27T17:00:20.777Z,3.00
2018-11-27T17:02:50.449Z,3.00
2018-11-27T17:05:18.731Z,3.00
2018-11-27T17:07:47.125Z,3.00
2018-11-27T17:10:17.471Z,2.90
2018-11-27T17:12:46.650Z,2.90
2018-11-27T17:15:17.981Z,2.90
2018-11-27T17:17:46.367Z,2.80
2018-11-27T17:20:21.238Z,2.80
2018-11-27T17:22:49.555Z,2.80
2018-11-27T17:25:18.359Z,2.90
2018-11-27T17:27:46.845Z,2.90
2018-11-27T17:31:18.764Z,2.90
2018-11-27T17:33:52.307Z,2.90
2018-11-27T17:36:20.619Z,2.90
2018-11-27T17:38:48.924Z,2.90
2018-11-27T17:41:17.621Z,2.90
2018-11-27T17:43:45.990Z,2.90
2018-11-27T17:46:14.323Z,2.90
2018-11-27T17:48:43.452Z,2.90
2018-11-27T17:51:11.820Z,2.90
2018-11-27T17:53:40.158Z,2.90
2018-11-27T17:56:08.718Z,2.90
2018-11-27T17:58:37.298Z,2.90
2018-11-27T18:01:05.777Z,2.90
2018-11-27T18:03:41.166Z,3.00
2018-11-27T18:06:11.542Z,2.90
2018-11-27T18:08:39.921Z,3.00
2018-11-27T18:11:08.270Z,2.90
2018-11-27T18:13:36.848Z,2.90
2018-11-27T18:16:06.030Z,2.90
2018-11-27T18:18:34.381Z,2.90
2018-11-27T18:21:02.711Z,2.80
2018-11-27T18:23:31.107Z,2.90
2018-11-27T18:25:59.457Z,2.90
2018-11-27T18:28:27.842Z,2.80
2018-11-27T18:30:56.830Z,2.80
2018-11-27T18:33:25.219Z,2.80
2018-11-27T18:35:53.672Z,2.80
2018-11-27T18:38:22.045Z,2.80
2018-11-27T18:40:50.424Z,2.90
2018-11-27T18:43:18.741Z,2.80
2018-11-27T18:45:47.080Z,2.90
2018-11-27T18:48:15.503Z,2.90
2018-11-27T18:50:49.484Z,2.80
2018-11-27T18:53:17.819Z,2.90
2018-11-27T18:55:46.489Z,2.80
2018-11-27T18:58:15.287Z,2.80
2018-11-27T19:00:44.198Z,2.90
2018-11-27T19:03:12.894Z,2.90
2018-11-27T19:05:41.382Z,2.90
2018-11-27T19:08:09.872Z,2.90
2018-11-27T19:10:38.397Z,2.90
2018-11-27T19:13:07.721Z,2.80
2018-11-27T19:15:46.528Z,2.80
2018-11-27T19:18:26.021Z,2.80
2018-11-27T19:20:55.050Z,2.80
2018-11-27T19:23:25.169Z,2.80
2018-11-27T19:25:54.070Z,2.80
2018-11-27T19:28:22.456Z,2.80
2018-11-27T19:30:51.438Z,2.80
2018-11-27T19:33:20.229Z,2.70
2018-11-27T19:35:49.052Z,2.80
2018-11-27T19:38:18.841Z,2.80
2018-11-27T19:40:47.213Z,2.80
2018-11-27T19:43:15.749Z,2.80
2018-11-27T19:45:44.256Z,2.80
2018-11-27T19:48:14.423Z,2.80
2018-11-27T19:50:45.644Z,2.80
2018-11-27T19:53:15.205Z,2.80
2018-11-27T19:55:44.715Z,2.80
2018-11-27T19:58:14.159Z,2.80
2018-11-27T20:00:42.971Z,2.80
2018-11-27T20:03:13.188Z,2.80
2018-11-27T20:05:42.695Z,2.80
2018-11-27T20:08:14.919Z,2.80
2018-11-27T20:10:43.654Z,2.90
2018-11-27T20:13:12.246Z,2.90
2018-11-27T20:15:40.834Z,2.90
2018-11-27T20:18:09.151Z,2.80
2018-11-27T20:20:38.245Z,2.90
2018-11-27T20:23:06.775Z,2.80
2018-11-27T20:25:38.811Z,2.90
2018-11-27T20:28:08.514Z,2.90
2018-11-27T20:30:39.042Z,2.80
2018-11-27T20:33:07.568Z,2.80
2018-11-27T20:35:36.156Z,2.90
2018-11-27T20:38:06.979Z,2.90
2018-11-27T20:40:35.504Z,2.90
2018-11-27T20:43:04.080Z,2.90
2018-11-27T20:45:46.904Z,2.90
2018-11-27T20:48:18.339Z,2.90
2018-11-27T20:50:49.115Z,2.90
2018-11-27T20:53:17.617Z,2.90
2018-11-27T20:55:46.362Z,2.90
2018-11-27T20:58:15.842Z,2.90
2018-11-27T21:00:46.289Z,2.90
2018-11-27T21:03:14.668Z,3.00
2018-11-27T21:05:43.850Z,3.00
2018-11-27T21:08:16.738Z,3.00
2018-11-27T21:10:46.245Z,3.00
2018-11-27T21:13:14.658Z,3.00
2018-11-27T21:15:44.445Z,3.00
2018-11-27T21:18:14.207Z,3.00
2018-11-27T21:20:43.599Z,3.00
2018-11-27T21:23:12.133Z,3.00
2018-11-27T21:25:40.520Z,3.10
2018-11-27T21:28:11.416Z,3.10
2018-11-27T21:30:40.526Z,3.00
2018-11-27T21:33:08.962Z,3.00
2018-11-27T21:35:37.326Z,3.00
2018-11-27T21:38:06.024Z,3.10
2018-11-27T21:40:35.055Z,3.10
2018-11-27T21:43:03.500Z,3.20
2018-11-27T21:45:31.924Z,3.20
2018-11-27T21:48:00.263Z,3.20
2018-11-27T21:50:34.068Z,3.20
2018-11-27T21:53:02.611Z,3.30
2018-11-27T21:55:31.057Z,3.20
2018-11-27T21:58:00.409Z,3.20
2018-11-27T22:00:29.131Z,3.20
2018-11-27T22:02:57.527Z,3.20
2018-11-27T22:05:26.194Z,3.20
2018-11-27T22:07:54.948Z,3.20
2018-11-27T22:10:24.233Z,3.20
2018-11-27T22:12:55.052Z,3.20
2018-11-27T22:15:28.422Z,3.20
2018-11-27T22:17:56.845Z,3.20
2018-11-27T22:20:25.313Z,3.20
2018-11-27T22:22:53.850Z,3.30
2018-11-27T22:25:23.134Z,3.20
2018-11-27T22:27:52.068Z,3.20
2018-11-27T22:30:21.311Z,3.20
2018-11-27T22:32:51.769Z,3.20
2018-11-27T22:35:20.183Z,3.20
2018-11-27T22:37:48.744Z,3.20
2018-11-27T22:40:19.489Z,3.30
2018-11-27T22:42:48.369Z,3.30
2018-11-27T22:45:20.361Z,3.20
2018-11-27T22:47:49.547Z,3.30
2018-11-27T22:50:18.755Z,3.30
2018-11-27T22:52:47.789Z,3.30
2018-11-27T22:55:16.501Z,3.30
2018-11-27T22:57:44.892Z,3.20
2018-11-27T23:00:19.071Z,3.30
2018-11-27T23:02:47.884Z,3.20
2018-11-27T23:05:16.928Z,3.20
2018-11-27T23:07:45.335Z,3.20
2018-11-27T23:10:14.618Z,3.30
2018-11-27T23:12:43.363Z,3.30
2018-11-27T23:15:13.095Z,3.30
2018-11-27T23:17:41.670Z,3.30
2018-11-27T23:20:12.544Z,3.30
2018-11-27T23:22:41.039Z,3.30
2018-11-27T23:25:10.665Z,3.30
2018-11-27T23:27:39.072Z,3.30
2018-11-27T23:30:15.050Z,3.30
2018-11-27T23:32:43.509Z,3.20
2018-11-27T23:35:11.864Z,3.20
2018-11-27T23:37:40.314Z,3.30
2018-11-27T23:40:10.648Z,3.30
2018-11-27T23:42:39.222Z,3.30
2018-11-27T23:45:09.629Z,3.30
2018-11-27T23:47:38.263Z,3.30
2018-11-27T23:50:09.903Z,3.30
2018-11-27T23:52:38.424Z,3.30
2018-11-27T23:55:08.168Z,3.30
2018-11-27T23:57:36.984Z,3.30
